Main page
METAR-TAF:

METAR-TAF

Airports :

Almirante Padilla Airport

Riohacha, Colombia

latitude: 11-32N, longitude: 072-56W, elevation: 4 m

Current weather observation

The report was made 10 hours and 28 minutes ago, at 02:00 UTC
Wind 5 kt from the North
Temperature 29°C
Humidity 84%
Pressure 1011 hPa
Visibility 10 km or more
Broken clouds at a height of 1500 ft

METAR: SKRH 280200Z 35005KT 9999 BKN015 29/26 A2986

Time: 07:28 (12:28 UTC)


TAF: missing

Weather observations and forecasts of more than 4000 airports (METAR and TAF reports).

The available stations are represented by yellow and red dots on the map.

Hover mouse over dot to see the name of the station.

Then click to see weather observations and forecasts.

To change the map : click on the green buttons with a black cross to zoom in, on the green button with a dash to zoom out, or on the green arrows for adjacent maps.


METAR-TAF: